Virtual Norwegian is not affiliated with Norwegian Air Shuttle in any way.
If you are looking for the real "Norwegian", or you wish to book Norwegian flights, please visit Norwegian.com


We use cookies to ensure you get the best experience on our website.   ACCEPT

EFKT - KTT - Kittila (Kittila)

General Info Alternate Airport
ICAO: EFKT Elevation: 644 ft ICAO: EFRO
IATA: KTT Country: Finland IATA: RVN
City: Kittila Charts: Log in to view charts City: Rovaniemi
Name: Kittila Hub: No Name Rovaniemi
General Info
ICAO: EFKT
IATA: KTT
City: Kittila
Name: Kittila
Elevation: 644 ft
Country: Finland
Charts: Log in to view charts
Hub: No
 
Alternate Airport
ICAO: EFRO
IATA: RVN
City: Rovaniemi
Name: Rovaniemi

Weather
241620Z AUTO 11009KT 3600 -SHSN OVC006 M03/M04 Q0997
Weather
241620Z AUTO 11009KT 3600 -SHSN OVC006 M03/M04 Q0997

Runway Info
16
Length ILS/LOC Course
2500 m 111.90 158
34
Length ILS/LOC Course
2500 m 111.90 336

NOTAMs
NOTAMs currently unavailable.
NOTAMs
NOTAMs currently unavailable

Route map
Airport
Airport (hub)